createdAt,value
2023-01-10T00:01:02.190Z,96893.06
2023-01-10T00:03:03.566Z,96888.97
2023-01-10T00:05:04.958Z,96897.59
2023-01-10T00:07:06.291Z,96903.59
2023-01-10T00:09:07.656Z,96905.34
2023-01-10T00:11:27.583Z,96910.50
2023-01-10T00:13:28.892Z,96910.63
2023-01-10T00:15:30.340Z,96920.97
2023-01-10T00:17:31.686Z,96921.03
2023-01-10T00:19:32.988Z,96923.66
2023-01-10T00:21:34.284Z,96915.09
2023-01-10T00:23:35.946Z,96915.97
2023-01-10T00:25:37.462Z,96916.06
2023-01-10T00:27:39.336Z,96928.00
2023-01-10T00:29:40.751Z,96923.09
2023-01-10T00:31:42.186Z,96926.72
2023-01-10T00:33:43.497Z,96927.69
2023-01-10T00:35:44.796Z,96938.84
2023-01-10T00:37:46.203Z,96932.91
2023-01-10T00:39:47.566Z,96942.41
2023-01-10T00:42:07.771Z,96944.34
2023-01-10T00:44:09.087Z,96952.06
2023-01-10T00:46:10.457Z,96952.91
2023-01-10T00:48:11.824Z,96953.03
2023-01-10T00:50:13.114Z,96951.34
2023-01-10T00:52:14.525Z,96959.13
2023-01-10T00:54:15.919Z,96964.25
2023-01-10T00:56:17.218Z,96967.50
2023-01-10T00:58:18.525Z,96971.78
2023-01-10T01:00:19.856Z,96964.84
2023-01-10T01:02:21.247Z,96978.31
2023-01-10T01:04:22.952Z,96976.53
2023-01-10T01:06:24.282Z,96978.06
2023-01-10T01:08:25.571Z,96984.84
2023-01-10T01:10:26.856Z,96989.03
2023-01-10T01:12:28.190Z,96890.06
2023-01-10T01:14:29.504Z,97001.41
2023-01-10T01:16:30.805Z,97000.50
2023-01-10T01:18:32.319Z,97008.94
2023-01-10T01:20:33.651Z,97000.38
2023-01-10T01:22:35.154Z,97016.56
2023-01-10T01:24:36.481Z,97012.00
2023-01-10T01:26:37.854Z,97016.97
2023-01-10T01:28:39.179Z,97019.06
2023-01-10T01:30:40.523Z,97020.38
2023-01-10T01:32:42.132Z,97016.31
2023-01-10T01:34:43.547Z,97023.53
2023-01-10T01:36:45.171Z,97020.34
2023-01-10T01:38:46.511Z,97022.84
2023-01-10T01:40:47.858Z,97029.78
2023-01-10T01:42:49.323Z,97028.06
2023-01-10T01:44:50.661Z,97025.59
2023-01-10T01:46:51.956Z,97026.66
2023-01-10T01:48:53.274Z,97029.44
2023-01-10T01:50:54.624Z,97032.13
2023-01-10T01:52:55.993Z,97033.09
2023-01-10T01:54:57.329Z,97033.19
2023-01-10T01:56:58.721Z,97044.59
2023-01-10T01:59:00.040Z,97049.97
2023-01-10T02:01:01.470Z,97048.41
2023-01-10T02:03:03.518Z,97058.81
2023-01-10T02:05:05.050Z,97053.81
2023-01-10T02:07:06.334Z,97052.09
2023-01-10T02:09:07.639Z,97063.97
2023-01-10T02:11:09.160Z,97056.38
2023-01-10T02:13:10.538Z,97061.41
2023-01-10T02:15:11.834Z,97063.09
2023-01-10T02:17:13.184Z,97075.78
2023-01-10T02:19:14.481Z,96951.91
2023-01-10T02:21:15.774Z,97077.47
2023-01-10T02:23:17.089Z,97079.91
2023-01-10T02:25:19.807Z,97078.00
2023-01-10T02:27:21.285Z,97077.78
2023-01-10T02:29:22.665Z,97089.63
2023-01-10T02:31:24.007Z,97080.25
2023-01-10T02:33:25.373Z,97086.97
2023-01-10T02:35:26.746Z,97092.72
2023-01-10T02:37:28.053Z,97096.66
2023-01-10T02:39:29.353Z,97099.94
2023-01-10T02:41:30.719Z,97097.97
2023-01-10T02:43:32.032Z,97109.75
2023-01-10T02:45:33.335Z,97103.59
2023-01-10T02:47:34.635Z,97101.03
2023-01-10T02:49:35.931Z,97110.38
2023-01-10T02:51:37.262Z,97113.91
2023-01-10T02:53:38.556Z,97118.16
2023-01-10T02:55:39.844Z,97118.16
2023-01-10T02:57:41.143Z,97119.09
2023-01-10T02:59:42.432Z,97125.91
2023-01-10T03:01:43.793Z,97125.06
2023-01-10T03:03:45.137Z,97130.31
2023-01-10T03:05:46.416Z,97132.84
2023-01-10T03:07:47.758Z,97131.38
2023-01-10T03:09:49.056Z,97134.03
2023-01-10T03:11:50.386Z,97133.34
2023-01-10T03:13:51.675Z,97139.44
2023-01-10T03:15:53.046Z,97133.63
2023-01-10T03:17:54.394Z,97137.19
2023-01-10T03:19:55.726Z,97126.03
2023-01-10T03:21:57.430Z,97147.31
2023-01-10T03:23:58.766Z,97149.13
2023-01-10T03:26:00.168Z,97156.88
2023-01-10T03:28:01.520Z,97167.19
2023-01-10T03:30:02.817Z,97163.88
2023-01-10T03:32:04.107Z,97161.34
2023-01-10T03:34:05.411Z,97178.25
2023-01-10T03:36:06.801Z,97178.28
2023-01-10T03:38:08.220Z,97188.59
2023-01-10T03:40:09.993Z,97193.72
2023-01-10T03:42:11.331Z,97187.13
2023-01-10T03:44:31.154Z,97201.00
2023-01-10T03:46:32.552Z,97207.41
2023-01-10T03:48:34.202Z,97203.34
2023-01-10T03:50:35.520Z,97220.50
2023-01-10T03:52:37.198Z,97220.06
2023-01-10T03:54:38.499Z,97226.28
2023-01-10T03:56:39.835Z,97222.09
2023-01-10T03:58:41.190Z,97225.00
2023-01-10T04:00:42.471Z,97234.50
2023-01-10T04:02:44.340Z,97234.31
2023-01-10T04:04:45.696Z,97241.03
2023-01-10T04:06:47.075Z,97239.25
2023-01-10T04:08:48.408Z,97233.09
2023-01-10T04:10:49.766Z,97243.84
2023-01-10T04:12:51.097Z,97243.13
2023-01-10T04:14:52.432Z,97257.84
2023-01-10T04:16:53.834Z,97258.31
2023-01-10T04:18:55.171Z,97261.41
2023-01-10T04:20:56.521Z,97260.34
2023-01-10T04:22:57.810Z,97269.41
2023-01-10T04:24:59.142Z,97272.59
2023-01-10T04:27:00.439Z,97275.81
2023-01-10T04:29:02.228Z,97290.97
2023-01-10T04:31:03.566Z,97287.41
2023-01-10T04:33:05.001Z,97294.97
2023-01-10T04:35:06.293Z,97295.72
2023-01-10T04:37:07.694Z,97300.75
2023-01-10T04:39:09.027Z,97301.59
2023-01-10T04:41:10.316Z,97304.94
2023-01-10T04:43:11.625Z,97296.34
2023-01-10T04:45:17.563Z,97304.78
2023-01-10T04:47:18.901Z,97311.53
2023-01-10T04:49:20.232Z,97308.09
2023-01-10T04:51:21.566Z,97321.66
2023-01-10T04:53:22.966Z,97317.38
2023-01-10T04:55:24.380Z,97328.44
2023-01-10T04:57:25.676Z,97327.69
2023-01-10T04:59:27.000Z,97328.53
2023-01-10T05:01:28.476Z,97333.63
2023-01-10T05:03:29.794Z,97333.66
2023-01-10T05:05:31.086Z,97345.78
2023-01-10T05:07:32.405Z,97345.13
2023-01-10T05:09:33.738Z,97346.31
2023-01-10T05:11:35.048Z,97355.03
2023-01-10T05:13:36.358Z,97355.38
2023-01-10T05:15:37.704Z,97364.09
2023-01-10T05:17:39.453Z,97364.25
2023-01-10T05:19:40.748Z,97363.59
2023-01-10T05:21:42.043Z,97368.78
2023-01-10T05:23:43.379Z,97375.66
2023-01-10T05:25:44.678Z,97370.72
2023-01-10T05:27:46.021Z,97383.41
2023-01-10T05:29:47.313Z,97386.03
2023-01-10T05:31:48.666Z,97386.88
2023-01-10T05:33:50.148Z,97394.53
2023-01-10T05:35:51.478Z,97392.81
2023-01-10T05:37:54.013Z,97400.47
2023-01-10T05:39:55.359Z,97409.84
2023-01-10T05:41:56.708Z,97417.50
2023-01-10T05:43:58.124Z,97418.28
2023-01-10T05:45:59.545Z,97413.97
2023-01-10T05:48:00.924Z,97423.25
2023-01-10T05:50:02.213Z,97435.91
2023-01-10T05:52:04.144Z,97426.38
2023-01-10T05:54:05.443Z,97437.38
2023-01-10T05:56:07.748Z,97430.41
2023-01-10T05:58:11.165Z,97443.09
2023-01-10T06:00:12.506Z,97447.31
2023-01-10T06:02:13.992Z,97453.16
2023-01-10T06:04:15.365Z,97454.81
2023-01-10T06:06:16.667Z,97462.50
2023-01-10T06:08:17.981Z,97468.28
2023-01-10T06:10:19.322Z,97475.09
2023-01-10T06:12:20.647Z,97479.28
2023-01-10T06:14:22.018Z,97485.19
2023-01-10T06:16:23.440Z,97478.31
2023-01-10T06:18:24.856Z,97487.69
2023-01-10T06:20:26.146Z,97490.25
2023-01-10T06:22:28.190Z,97496.13
2023-01-10T06:24:29.484Z,97491.88
2023-01-10T06:26:36.858Z,97499.47
2023-01-10T06:28:38.171Z,97500.41
2023-01-10T06:30:40.904Z,97514.09
2023-01-10T06:32:42.535Z,97522.63
2023-01-10T06:34:43.849Z,97523.47
2023-01-10T06:36:45.195Z,97524.34
2023-01-10T06:38:47.048Z,97524.44
2023-01-10T06:40:48.363Z,97523.72
2023-01-10T06:42:50.428Z,97532.38
2023-01-10T06:44:51.726Z,97542.69
2023-01-10T06:46:53.032Z,97542.78
2023-01-10T06:48:54.332Z,97542.03
2023-01-10T06:50:55.635Z,97550.59
2023-01-10T06:52:57.140Z,97553.22
2023-01-10T06:54:58.438Z,97562.63
2023-01-10T06:56:59.739Z,97565.22
2023-01-10T06:59:01.122Z,97571.25
2023-01-10T07:01:02.523Z,97567.03
2023-01-10T07:03:03.907Z,97578.13
2023-01-10T07:05:05.204Z,97583.25
2023-01-10T07:07:06.495Z,97586.75
2023-01-10T07:09:07.791Z,97590.13
2023-01-10T07:11:09.132Z,97603.75
2023-01-10T07:13:10.432Z,97596.09
2023-01-10T07:15:11.742Z,97606.22
2023-01-10T07:17:13.042Z,97604.44
2023-01-10T07:19:14.412Z,97612.88
2023-01-10T07:21:18.188Z,97617.00
2023-01-10T07:23:19.620Z,97614.44
2023-01-10T07:25:20.959Z,97617.69
2023-01-10T07:27:22.248Z,97626.16
2023-01-10T07:29:23.577Z,97632.03
2023-01-10T07:31:25.173Z,97633.72
2023-01-10T07:33:26.514Z,97630.25
2023-01-10T07:35:27.825Z,97643.78
2023-01-10T07:37:29.182Z,97642.00
2023-01-10T07:39:34.238Z,97647.09
2023-01-10T07:41:35.576Z,97658.16
2023-01-10T07:43:36.858Z,97662.34
2023-01-10T07:45:38.146Z,97663.09
2023-01-10T07:47:39.448Z,97668.22
2023-01-10T07:49:40.815Z,97655.56
2023-01-10T07:51:42.110Z,97667.47
2023-01-10T07:53:43.452Z,97666.63
2023-01-10T07:55:46.108Z,97675.16
2023-01-10T07:57:47.458Z,97679.44
2023-01-10T07:59:48.792Z,97670.97
2023-01-10T08:01:50.188Z,97679.47
2023-01-10T08:03:51.672Z,97679.38
2023-01-10T08:05:53.084Z,97682.03
2023-01-10T08:07:56.289Z,97674.41
2023-01-10T08:09:57.619Z,97681.25
2023-01-10T08:11:58.949Z,97683.84
2023-01-10T08:14:00.241Z,97685.66
2023-01-10T08:16:02.251Z,97693.34
2023-01-10T08:18:05.008Z,97688.22
2023-01-10T08:20:06.403Z,97694.25
2023-01-10T08:22:07.812Z,97694.31
2023-01-10T08:24:09.171Z,97695.25
2023-01-10T08:26:10.515Z,97700.38
2023-01-10T08:28:11.897Z,97700.47
2023-01-10T08:30:13.205Z,97701.25
2023-01-10T08:32:14.548Z,97706.47
2023-01-10T08:34:15.953Z,97707.28
2023-01-10T08:36:17.314Z,97715.88
2023-01-10T08:38:18.627Z,97718.44
2023-01-10T08:40:19.941Z,97708.22
2023-01-10T08:42:21.250Z,97715.00
2023-01-10T08:44:22.668Z,97728.56
2023-01-10T08:46:24.168Z,97730.25
2023-01-10T08:48:25.650Z,97726.81
2023-01-10T08:50:26.961Z,97726.75
2023-01-10T08:52:28.269Z,97737.75
2023-01-10T08:54:29.572Z,97739.44
2023-01-10T08:56:30.947Z,97743.69
2023-01-10T08:58:32.276Z,97741.09
2023-01-10T09:00:33.620Z,97749.53
2023-01-10T09:02:35.382Z,97741.06
2023-01-10T09:04:36.748Z,97746.13
2023-01-10T09:06:38.155Z,97744.41
2023-01-10T09:08:39.516Z,97748.53
2023-01-10T09:10:41.641Z,97755.41
2023-01-10T09:12:55.158Z,97757.00
2023-01-10T09:14:56.498Z,97750.22
2023-01-10T09:16:57.797Z,97757.81
2023-01-10T09:18:59.085Z,97770.56
2023-01-10T09:21:00.610Z,97769.81
2023-01-10T09:23:01.955Z,97776.63
2023-01-10T09:25:03.509Z,97784.34
2023-01-10T09:27:04.836Z,97789.41
2023-01-10T09:29:06.131Z,97786.81
2023-01-10T09:31:08.824Z,97780.09
2023-01-10T09:33:10.371Z,97791.25
2023-01-10T09:35:11.687Z,97795.50
2023-01-10T09:37:13.023Z,97792.09
2023-01-10T09:39:14.335Z,97798.03
2023-01-10T09:41:15.675Z,97802.31
2023-01-10T09:43:16.985Z,97804.81
2023-01-10T09:45:18.483Z,97811.59
2023-01-10T09:47:22.738Z,97815.13
2023-01-10T09:49:24.639Z,97818.56
2023-01-10T09:51:25.962Z,97821.19
2023-01-10T09:53:27.267Z,97814.38
2023-01-10T09:55:29.153Z,97806.72
2023-01-10T09:57:31.319Z,97815.16
2023-01-10T09:59:32.623Z,97814.38
2023-01-10T10:01:36.745Z,97811.81
2023-01-10T10:03:40.900Z,97818.63
2023-01-10T10:05:42.420Z,97810.09
2023-01-10T10:07:43.769Z,97817.75
2023-01-10T10:09:45.099Z,97816.91
2023-01-10T10:11:46.484Z,97811.75
2023-01-10T10:13:48.348Z,97807.56
2023-01-10T10:15:49.771Z,97807.56
2023-01-10T10:17:51.153Z,97812.66
2023-01-10T10:19:52.489Z,97810.06
2023-01-10T10:21:53.819Z,97810.94
2023-01-10T10:23:55.127Z,97816.13
2023-01-10T10:25:56.451Z,97816.13
2023-01-10T10:27:57.786Z,97825.50
2023-01-10T10:29:59.192Z,97816.91
2023-01-10T10:32:00.507Z,97821.97
2023-01-10T10:34:01.847Z,97830.47
2023-01-10T10:36:03.143Z,97821.97
2023-01-10T10:38:04.485Z,97816.00
2023-01-10T10:40:05.786Z,97813.44
2023-01-10T10:42:07.168Z,97820.25
2023-01-10T10:44:08.498Z,97828.78
2023-01-10T10:46:09.916Z,97826.22
2023-01-10T10:48:11.230Z,97821.09
2023-01-10T10:50:12.551Z,97829.56
2023-01-10T10:52:13.895Z,97831.41
2023-01-10T10:54:16.557Z,97829.72
2023-01-10T10:56:17.970Z,97823.72
2023-01-10T10:58:19.388Z,97829.69
2023-01-10T11:00:20.925Z,97836.50
2023-01-10T11:02:22.459Z,97827.13
2023-01-10T11:04:23.808Z,97832.25
2023-01-10T11:06:25.147Z,97826.22
2023-01-10T11:08:26.612Z,97833.09
2023-01-10T11:10:37.034Z,97837.31
2023-01-10T11:12:38.395Z,97839.97
2023-01-10T11:14:39.691Z,97845.03
2023-01-10T11:16:41.073Z,97848.41
2023-01-10T11:18:42.541Z,97853.59
2023-01-10T11:20:43.838Z,97849.34
2023-01-10T11:22:45.151Z,97842.53
2023-01-10T11:24:46.493Z,97850.16
2023-01-10T11:26:47.833Z,97847.59
2023-01-10T11:28:49.126Z,97846.78
2023-01-10T11:30:50.432Z,97860.28
2023-01-10T11:32:53.162Z,97858.59
2023-01-10T11:34:54.632Z,97852.69
2023-01-10T11:36:55.981Z,97862.91
2023-01-10T11:38:57.283Z,97863.75
2023-01-10T11:40:58.610Z,97869.72
2023-01-10T11:42:59.994Z,97882.50
2023-01-10T11:45:01.299Z,97879.94
2023-01-10T11:47:02.613Z,97880.78
2023-01-10T11:49:06.813Z,97889.38
2023-01-10T11:51:08.923Z,97897.03
2023-01-10T11:53:10.270Z,97893.63
2023-01-10T11:55:11.567Z,97894.50
2023-01-10T11:57:13.959Z,97892.81
2023-01-10T11:59:15.320Z,97894.47
2023-01-10T12:01:16.679Z,97801.41
2023-01-10T12:03:18.126Z,97901.22
2023-01-10T12:05:19.960Z,97910.59
2023-01-10T12:07:21.462Z,97910.63
2023-01-10T12:09:22.787Z,97915.75
2023-01-10T12:11:27.276Z,97916.56
2023-01-10T12:13:29.212Z,97908.16
2023-01-10T12:15:30.517Z,97910.69
2023-01-10T12:17:31.815Z,97912.44
2023-01-10T12:19:33.232Z,97916.75
2023-01-10T12:21:34.801Z,97914.22
2023-01-10T12:23:41.419Z,97917.56
2023-01-10T12:25:42.725Z,97914.97
2023-01-10T12:27:44.981Z,97918.38
2023-01-10T12:29:46.282Z,97918.34
2023-01-10T12:31:47.579Z,97918.34
2023-01-10T12:33:48.923Z,97920.97
2023-01-10T12:35:50.247Z,97928.63
2023-01-10T12:37:51.759Z,97928.63
2023-01-10T12:39:53.115Z,97929.47
2023-01-10T12:42:13.248Z,97926.91
2023-01-10T12:44:14.998Z,97934.53
2023-01-10T12:46:29.763Z,97932.84
2023-01-10T12:48:37.617Z,97940.50
2023-01-10T12:50:38.910Z,97945.56
2023-01-10T12:52:45.361Z,97941.31
2023-01-10T12:54:46.679Z,97939.59
2023-01-10T12:56:48.057Z,97933.69
2023-01-10T12:58:49.405Z,97943.06
2023-01-10T13:00:50.774Z,97938.78
2023-01-10T13:02:52.255Z,97935.41
2023-01-10T13:04:53.619Z,97941.28
2023-01-10T13:06:54.906Z,97948.94
2023-01-10T13:08:58.063Z,97948.97
2023-01-10T13:10:59.392Z,97949.75
2023-01-10T13:13:00.747Z,97961.66
2023-01-10T13:15:05.079Z,97960.75
2023-01-10T13:17:08.277Z,97961.72
2023-01-10T13:19:09.577Z,97959.00
2023-01-10T13:21:13.640Z,97962.38
2023-01-10T13:23:14.947Z,97961.53
2023-01-10T13:25:16.346Z,97966.56
2023-01-10T13:27:17.663Z,97968.22
2023-01-10T13:29:18.982Z,97969.97
2023-01-10T13:31:20.335Z,97969.06
2023-01-10T13:33:21.854Z,97971.63
2023-01-10T13:35:25.550Z,97973.28
2023-01-10T13:37:26.918Z,97974.13
2023-01-10T13:39:28.213Z,97972.41
2023-01-10T13:41:49.764Z,97972.41
2023-01-10T13:43:51.095Z,97977.53
2023-01-10T13:45:52.442Z,97973.34
2023-01-10T13:47:57.099Z,97989.53
2023-01-10T13:50:01.085Z,97992.97
2023-01-10T13:52:02.377Z,97989.66
2023-01-10T13:54:03.702Z,97991.53
2023-01-10T13:56:05.034Z,97984.81
2023-01-10T13:58:06.367Z,97996.13
2023-01-10T14:00:26.255Z,97994.59
2023-01-10T14:02:31.628Z,97991.31
2023-01-10T14:04:33.031Z,98002.38
2023-01-10T14:06:40.930Z,98007.25
2023-01-10T14:08:42.360Z,98003.94
2023-01-10T14:10:43.658Z,98016.78
2023-01-10T14:12:44.942Z,98012.88
2023-01-10T14:14:46.276Z,98016.91
2023-01-10T14:16:47.578Z,98021.03
2023-01-10T14:18:48.877Z,98022.88
2023-01-10T14:20:53.242Z,98032.16
2023-01-10T14:22:54.582Z,98027.69
2023-01-10T14:24:55.927Z,98020.94
2023-01-10T14:26:57.542Z,98031.97
2023-01-10T14:28:58.922Z,98031.53
2023-01-10T14:31:00.886Z,98033.03
2023-01-10T14:33:02.254Z,98041.03
2023-01-10T14:35:03.640Z,98042.84
2023-01-10T14:37:04.979Z,98043.72
2023-01-10T14:39:06.357Z,98047.03
2023-01-10T14:41:10.791Z,98044.47
2023-01-10T14:43:12.103Z,98042.84
2023-01-10T14:45:13.413Z,98042.00
2023-01-10T14:47:14.779Z,98036.91
2023-01-10T14:49:16.091Z,98043.69
2023-01-10T14:51:18.253Z,98037.63
2023-01-10T14:53:19.570Z,98041.09
2023-01-10T14:55:21.606Z,98047.13
2023-01-10T14:57:22.940Z,98054.00
2023-01-10T14:59:24.362Z,98056.53
2023-01-10T15:01:25.872Z,98058.19
2023-01-10T15:03:27.337Z,98058.78
2023-01-10T15:05:28.765Z,98043.78
2023-01-10T15:07:30.110Z,98039.00
2023-01-10T15:09:31.536Z,98040.88
2023-01-10T15:11:32.940Z,98048.69
2023-01-10T15:13:34.313Z,98043.75
2023-01-10T15:15:35.664Z,98043.88
2023-01-10T15:17:36.981Z,98044.81
2023-01-10T15:19:38.315Z,98034.63
2023-01-10T15:21:39.607Z,98033.84
2023-01-10T15:23:40.954Z,98037.22
2023-01-10T15:25:42.294Z,98040.66
2023-01-10T15:27:43.728Z,98047.41
2023-01-10T15:29:46.962Z,98046.50
2023-01-10T15:31:48.343Z,98046.38
2023-01-10T15:33:56.554Z,98049.66
2023-01-10T15:35:58.351Z,98059.75
2023-01-10T15:38:02.579Z,98059.56
2023-01-10T15:40:03.939Z,98058.31
2023-01-10T15:42:05.241Z,98052.09
2023-01-10T15:44:06.534Z,98059.56
2023-01-10T15:46:08.946Z,98056.91
2023-01-10T15:48:10.283Z,98061.94
2023-01-10T15:50:11.603Z,98060.97
2023-01-10T15:52:13.295Z,98062.59
2023-01-10T15:54:16.117Z,98062.56
2023-01-10T15:56:23.931Z,98069.41
2023-01-10T15:58:25.223Z,98077.88
2023-01-10T16:00:26.534Z,98077.00
2023-01-10T16:02:28.028Z,98072.75
2023-01-10T16:04:29.434Z,98075.38
2023-01-10T16:06:30.762Z,98071.13
2023-01-10T16:08:32.739Z,98083.13
2023-01-10T16:10:37.068Z,98075.56
2023-01-10T16:12:56.987Z,98075.66
2023-01-10T16:14:58.318Z,98077.44
2023-01-10T16:16:59.622Z,98074.06
2023-01-10T16:19:02.785Z,98083.56
2023-01-10T16:21:04.482Z,98075.06
2023-01-10T16:23:08.814Z,98074.25
2023-01-10T16:25:10.133Z,98075.13
2023-01-10T16:27:11.570Z,98080.34
2023-01-10T16:29:13.278Z,98087.25
2023-01-10T16:31:14.717Z,98089.97
2023-01-10T16:33:16.343Z,98083.31
2023-01-10T16:35:18.648Z,98089.38
2023-01-10T16:37:19.987Z,98083.28
2023-01-10T16:39:21.339Z,98084.69
2023-01-10T16:41:41.500Z,98087.13
2023-01-10T16:43:42.844Z,98087.16
2023-01-10T16:45:44.176Z,98080.28
2023-01-10T16:47:45.560Z,98098.41
2023-01-10T16:49:47.158Z,98091.66
2023-01-10T16:51:48.535Z,98098.47
2023-01-10T16:53:50.401Z,98091.19
2023-01-10T16:55:51.707Z,98093.84
2023-01-10T16:57:53.052Z,98092.06
2023-01-10T16:59:54.362Z,98086.97
2023-01-10T17:01:55.868Z,98098.00
2023-01-10T17:03:57.318Z,98091.81
2023-01-10T17:05:58.705Z,98088.25
2023-01-10T17:08:00.018Z,98086.88
2023-01-10T17:10:02.174Z,98090.78
2023-01-10T17:12:03.527Z,98091.31
2023-01-10T17:14:05.332Z,98096.84
2023-01-10T17:16:06.671Z,98088.91
2023-01-10T17:18:08.055Z,98093.66
2023-01-10T17:20:09.366Z,98093.56
2023-01-10T17:22:10.673Z,98092.88
2023-01-10T17:24:14.882Z,98090.75
2023-01-10T17:26:16.294Z,98090.53
2023-01-10T17:28:19.348Z,98092.44
2023-01-10T17:30:20.686Z,98086.88
2023-01-10T17:32:22.023Z,98087.41
2023-01-10T17:34:23.327Z,98088.81
2023-01-10T17:36:29.098Z,98084.53
2023-01-10T17:38:30.422Z,98081.81
2023-01-10T17:40:32.142Z,98082.13
2023-01-10T17:42:33.515Z,98079.06
2023-01-10T17:44:34.858Z,98085.25
2023-01-10T17:46:36.191Z,98085.47
2023-01-10T17:48:37.696Z,98085.56
2023-01-10T17:50:38.982Z,98084.75
2023-01-10T17:52:42.977Z,98085.63
2023-01-10T17:54:44.316Z,98089.16
2023-01-10T17:56:45.692Z,98090.81
2023-01-10T17:58:47.396Z,98096.84
2023-01-10T18:00:49.016Z,98087.53
2023-01-10T18:02:50.492Z,98089.25
2023-01-10T18:04:51.947Z,98079.94
2023-01-10T18:06:53.383Z,98087.72
2023-01-10T18:08:54.730Z,98088.25
2023-01-10T18:10:56.041Z,98085.19
2023-01-10T18:12:57.333Z,98088.91
2023-01-10T18:14:58.672Z,98097.22
2023-01-10T18:17:00.061Z,98087.09
2023-01-10T18:19:02.250Z,98095.66
2023-01-10T18:21:11.470Z,98088.72
2023-01-10T18:23:21.846Z,98091.22
2023-01-10T18:25:23.277Z,98091.19
2023-01-10T18:27:24.630Z,98089.00
2023-01-10T18:29:25.957Z,98100.13
2023-01-10T18:31:27.310Z,98104.94
2023-01-10T18:33:28.618Z,98096.34
2023-01-10T18:35:30.302Z,98100.63
2023-01-10T18:37:31.704Z,98095.47
2023-01-10T18:39:33.066Z,98104.88
2023-01-10T18:41:34.400Z,98096.47
2023-01-10T18:43:35.758Z,98097.34
2023-01-10T18:45:37.059Z,98097.41
2023-01-10T18:47:38.430Z,98095.72
2023-01-10T18:49:40.059Z,98110.31
2023-01-10T18:51:41.372Z,98110.47
2023-01-10T18:53:42.765Z,98104.66
2023-01-10T18:55:44.082Z,98115.47
2023-01-10T18:57:45.416Z,98114.59
2023-01-10T18:59:46.726Z,98107.94
2023-01-10T19:01:48.099Z,98101.47
2023-01-10T19:03:50.319Z,98106.09
2023-01-10T19:05:57.495Z,98098.19
2023-01-10T19:07:58.911Z,98106.50
2023-01-10T19:10:00.202Z,98098.72
2023-01-10T19:12:02.256Z,98106.28
2023-01-10T19:14:04.792Z,98097.63
2023-01-10T19:16:06.281Z,98106.94
2023-01-10T19:18:07.680Z,98103.44
2023-01-10T19:20:16.970Z,98103.34
2023-01-10T19:22:19.864Z,98102.38
2023-01-10T19:24:24.774Z,97948.41
2023-01-10T19:26:26.202Z,98102.59
2023-01-10T19:28:29.387Z,98100.38
2023-01-10T19:30:30.867Z,98096.22
2023-01-10T19:32:32.204Z,98098.63
2023-01-10T19:34:33.549Z,98096.28
2023-01-10T19:36:35.021Z,98102.13
2023-01-10T19:38:39.243Z,98100.41
2023-01-10T19:40:40.530Z,98098.50
2023-01-10T19:42:41.856Z,98084.78
2023-01-10T19:44:43.176Z,98092.16
2023-01-10T19:46:50.307Z,98082.78
2023-01-10T19:48:51.664Z,98098.22
2023-01-10T19:50:52.968Z,98086.31
2023-01-10T19:52:54.291Z,98083.78
2023-01-10T19:54:55.613Z,98085.56
2023-01-10T19:57:02.671Z,98081.34
2023-01-10T19:59:04.015Z,98075.41
2023-01-10T20:01:05.317Z,98083.13
2023-01-10T20:03:07.806Z,98075.31
2023-01-10T20:05:09.205Z,98075.38
2023-01-10T20:07:10.496Z,98080.34
2023-01-10T20:09:11.823Z,98066.72
2023-01-10T20:11:16.571Z,98065.00
2023-01-10T20:13:17.900Z,98071.81
2023-01-10T20:15:19.312Z,98074.31
2023-01-10T20:17:23.312Z,98068.56
2023-01-10T20:19:24.648Z,98073.03
2023-01-10T20:21:25.979Z,98066.72
2023-01-10T20:23:33.367Z,98071.91
2023-01-10T20:25:34.680Z,98072.00
2023-01-10T20:27:43.010Z,98069.53
2023-01-10T20:29:45.680Z,98074.63
2023-01-10T20:31:48.109Z,98075.47
2023-01-10T20:33:49.611Z,98074.63
2023-01-10T20:35:50.943Z,98078.00
2023-01-10T20:37:52.286Z,98079.69
2023-01-10T20:39:54.392Z,98077.91
2023-01-10T20:41:55.743Z,98066.78
2023-01-10T20:43:57.091Z,98066.66
2023-01-10T20:45:58.421Z,98062.34
2023-01-10T20:47:59.743Z,98071.63
2023-01-10T20:50:01.044Z,98069.81
2023-01-10T20:52:02.334Z,98042.47
2023-01-10T20:54:08.148Z,98058.13
2023-01-10T20:56:09.504Z,98048.94
2023-01-10T20:58:10.845Z,98051.97
2023-01-10T21:00:12.142Z,98044.66
2023-01-10T21:02:13.475Z,98044.16
2023-01-10T21:04:14.909Z,98039.97
2023-01-10T21:06:16.210Z,98037.66
2023-01-10T21:08:18.228Z,98047.13
2023-01-10T21:10:19.582Z,98048.84
2023-01-10T21:12:25.252Z,98050.59
2023-01-10T21:14:28.057Z,98055.06
2023-01-10T21:16:29.505Z,98049.78
2023-01-10T21:18:33.851Z,98036.59
2023-01-10T21:20:35.162Z,98042.00
2023-01-10T21:22:36.520Z,98038.28
2023-01-10T21:24:38.043Z,98044.09
2023-01-10T21:26:39.385Z,98036.22
2023-01-10T21:28:42.429Z,98037.06
2023-01-10T21:30:43.822Z,98038.84
2023-01-10T21:32:45.115Z,98045.56
2023-01-10T21:34:46.470Z,98052.22
2023-01-10T21:36:47.761Z,98046.69
2023-01-10T21:38:49.660Z,98036.84
2023-01-10T21:40:51.014Z,98038.31
2023-01-10T21:42:52.727Z,98040.56
2023-01-10T21:44:54.117Z,98043.38
2023-01-10T21:46:55.485Z,98040.13
2023-01-10T21:48:56.835Z,98029.06
2023-01-10T21:50:58.219Z,98036.78
2023-01-10T21:52:59.507Z,98035.09
2023-01-10T21:55:00.814Z,98028.28
2023-01-10T21:57:03.446Z,98029.88
2023-01-10T21:59:04.782Z,98018.72
2023-01-10T22:01:06.287Z,98022.63
2023-01-10T22:03:07.660Z,98018.88
2023-01-10T22:05:10.171Z,98019.91
2023-01-10T22:07:11.508Z,98026.06
2023-01-10T22:09:12.863Z,98028.56
2023-01-10T22:11:14.245Z,98022.50
2023-01-10T22:13:15.571Z,98035.63
2023-01-10T22:15:16.925Z,98020.25
2023-01-10T22:17:18.312Z,98013.31
2023-01-10T22:19:19.631Z,98029.69
2023-01-10T22:21:21.523Z,98017.34
2023-01-10T22:23:22.889Z,98021.34
2023-01-10T22:25:24.235Z,98023.66
2023-01-10T22:27:25.539Z,98019.25
2023-01-10T22:29:28.326Z,98010.59
2023-01-10T22:31:29.801Z,98013.06
2023-01-10T22:33:31.150Z,98007.09
2023-01-10T22:35:32.501Z,97999.38
2023-01-10T22:37:33.827Z,98005.31
2023-01-10T22:39:35.159Z,97997.56
2023-01-10T22:41:36.504Z,98002.69
2023-01-10T22:43:37.848Z,98001.00
2023-01-10T22:45:39.289Z,97990.81
2023-01-10T22:47:40.628Z,97994.22
2023-01-10T22:49:41.962Z,97989.97
2023-01-10T22:51:43.303Z,97988.31
2023-01-10T22:53:44.678Z,97985.78
2023-01-10T22:55:45.978Z,97985.00
2023-01-10T22:57:47.829Z,97975.72
2023-01-10T22:59:49.278Z,97970.72
2023-01-10T23:01:50.570Z,97968.31
2023-01-10T23:03:51.964Z,97966.72
2023-01-10T23:05:53.287Z,97966.84
2023-01-10T23:07:54.581Z,97962.63
2023-01-10T23:09:55.911Z,97961.88
2023-01-10T23:11:57.203Z,97952.56
2023-01-10T23:13:58.521Z,97955.22
2023-01-10T23:15:59.918Z,97946.84
2023-01-10T23:18:01.272Z,97946.19
2023-01-10T23:20:02.610Z,97947.13
2023-01-10T23:22:03.963Z,97945.56
2023-01-10T23:24:05.279Z,97947.38
2023-01-10T23:26:06.630Z,97945.75
2023-01-10T23:28:07.998Z,97948.38
2023-01-10T23:30:09.294Z,97943.34
2023-01-10T23:32:10.712Z,97939.16
2023-01-10T23:34:12.131Z,97940.97
2023-01-10T23:36:13.472Z,97940.13
2023-01-10T23:38:14.762Z,97935.84
2023-01-10T23:40:16.197Z,97937.50
2023-01-10T23:42:17.511Z,97943.41
2023-01-10T23:44:18.902Z,97807.50
2023-01-10T23:46:20.366Z,97942.53
2023-01-10T23:48:21.789Z,97939.06
2023-01-10T23:50:23.375Z,97949.16
2023-01-10T23:52:24.680Z,97935.38